Terminal Aerodrome Forecast
Issued by NWS Louisville, KY

Home | Current Version | Previous Version | Text Only | Print | Product List | Glossary On
Versions: 1 2 3 4 5 6 7 8 9 10 11 12 13 14 15 16 17 18 19
996
FTUS43 KLMK 290520
TAFLEX
TAF
KLEX 290520Z 2906/3006 18004KT P6SM BKN200
     FM291500 22007KT P6SM BKN170
     FM292200 20006KT P6SM VCSH SCT050
     FM300200 VRB04KT P6SM SCT250=

USA.gov is the U.S. government's official web portal to all federal, state and local government web resources and services.